createdAt,value
2023-01-29T00:04:46.652Z,18.65
2023-01-29T00:10:09.119Z,18.63
2023-01-29T00:15:30.795Z,18.57
2023-01-29T00:20:52.524Z,18.52
2023-01-29T00:26:15.047Z,18.48
2023-01-29T00:31:36.954Z,18.45
2023-01-29T00:37:05.130Z,18.41
2023-01-29T00:42:45.429Z,18.37
2023-01-29T00:48:07.224Z,18.34
2023-01-29T00:53:29.611Z,18.30
2023-01-29T00:58:51.346Z,18.25
2023-01-29T01:04:13.601Z,18.22
2023-01-29T01:09:55.206Z,18.19
2023-01-29T01:15:18.035Z,18.13
2023-01-29T01:20:40.148Z,18.12
2023-01-29T01:26:01.928Z,18.08
2023-01-29T01:31:23.753Z,18.05
2023-01-29T01:36:45.770Z,18.03
2023-01-29T01:42:13.299Z,18.02
2023-01-29T01:47:43.808Z,18.00
2023-01-29T01:53:11.031Z,17.97
2023-01-29T01:58:38.395Z,17.92
2023-01-29T02:04:45.275Z,17.91
2023-01-29T02:10:14.153Z,17.88
2023-01-29T02:15:36.106Z,17.85
2023-01-29T02:21:31.475Z,17.83
2023-01-29T02:27:00.393Z,17.80
2023-01-29T02:32:34.512Z,17.78
2023-01-29T02:38:01.819Z,17.75
2023-01-29T02:43:47.579Z,17.73
2023-01-29T02:49:22.028Z,17.72
2023-01-29T02:54:53.023Z,17.69
2023-01-29T03:00:18.772Z,17.66
2023-01-29T03:05:43.604Z,17.63
2023-01-29T03:11:07.320Z,17.61
2023-01-29T03:16:44.095Z,17.59
2023-01-29T03:22:08.650Z,17.56
2023-01-29T03:27:55.266Z,17.54
2023-01-29T03:33:19.537Z,17.51
2023-01-29T03:38:41.405Z,17.49
2023-01-29T03:44:22.112Z,17.49
2023-01-29T03:50:25.693Z,17.46
2023-01-29T03:56:07.276Z,17.43
2023-01-29T04:01:45.287Z,17.41
2023-01-29T04:07:17.655Z,17.38
2023-01-29T04:12:45.963Z,17.37
2023-01-29T04:18:07.691Z,17.36
2023-01-29T04:23:29.411Z,17.34
2023-01-29T04:29:16.636Z,17.33
2023-01-29T04:35:03.484Z,17.31
2023-01-29T04:40:40.604Z,17.23
2023-01-29T04:46:02.504Z,17.24
2023-01-29T04:52:00.619Z,17.24
2023-01-29T04:57:29.824Z,17.22
2023-01-29T05:02:51.739Z,17.19
2023-01-29T05:08:16.370Z,17.18
2023-01-29T05:13:41.931Z,17.18
2023-01-29T05:19:03.745Z,17.15
2023-01-29T05:24:26.947Z,17.14
2023-01-29T05:29:48.804Z,17.13
2023-01-29T05:35:10.494Z,17.12
2023-01-29T05:40:32.248Z,17.10
2023-01-29T05:46:01.099Z,17.09
2023-01-29T05:51:23.208Z,17.07
2023-01-29T05:56:44.866Z,17.05
2023-01-29T06:02:06.743Z,17.04
2023-01-29T06:07:28.452Z,17.01
2023-01-29T06:12:50.233Z,17.01
2023-01-29T06:18:11.941Z,16.97
2023-01-29T06:23:33.745Z,16.97
2023-01-29T06:28:55.495Z,16.97
2023-01-29T06:34:17.244Z,16.94
2023-01-29T06:39:38.927Z,16.98
2023-01-29T06:45:00.920Z,17.29
2023-01-29T06:50:22.789Z,17.89
2023-01-29T06:55:51.015Z,18.53
2023-01-29T07:01:25.447Z,19.08
2023-01-29T07:06:55.135Z,19.55
2023-01-29T07:12:16.879Z,19.85
2023-01-29T07:17:39.631Z,19.95
2023-01-29T07:23:01.394Z,19.92
2023-01-29T07:28:23.128Z,19.81
2023-01-29T07:33:45.072Z,19.61
2023-01-29T07:39:06.749Z,19.41
2023-01-29T07:44:28.524Z,19.22
2023-01-29T07:49:50.207Z,19.03
2023-01-29T07:55:11.935Z,18.86
2023-01-29T08:00:33.714Z,18.71
2023-01-29T08:05:55.416Z,18.55
2023-01-29T08:11:17.355Z,18.47
2023-01-29T08:16:39.189Z,18.43
2023-01-29T08:22:01.439Z,18.58
2023-01-29T08:27:23.180Z,18.90
2023-01-29T08:32:44.920Z,19.32
2023-01-29T08:38:06.898Z,19.80
2023-01-29T08:43:28.565Z,20.17
2023-01-29T08:48:50.296Z,20.41
2023-01-29T08:54:11.993Z,20.51
2023-01-29T08:59:33.706Z,20.56
2023-01-29T09:04:56.007Z,20.68
2023-01-29T09:10:17.814Z,20.87
2023-01-29T09:15:39.500Z,20.99
2023-01-29T09:21:02.789Z,21.02
2023-01-29T09:26:24.608Z,20.98
2023-01-29T09:31:46.697Z,20.85
2023-01-29T09:37:08.515Z,20.66
2023-01-29T09:42:48.789Z,20.47
2023-01-29T09:48:12.786Z,20.26
2023-01-29T09:53:46.169Z,20.10
2023-01-29T09:59:12.830Z,19.90
2023-01-29T10:05:03.463Z,19.73
2023-01-29T10:10:40.084Z,19.56
2023-01-29T10:16:41.742Z,19.40
2023-01-29T10:22:21.454Z,19.31
2023-01-29T10:27:49.960Z,19.19
2023-01-29T10:33:25.520Z,19.10
2023-01-29T10:38:49.357Z,19.00
2023-01-29T10:44:32.020Z,18.91
2023-01-29T10:50:15.737Z,18.94
2023-01-29T10:56:22.672Z,19.10
2023-01-29T11:01:45.171Z,19.29
2023-01-29T11:07:07.040Z,19.49
2023-01-29T11:12:33.593Z,19.66
2023-01-29T11:18:13.458Z,19.83
2023-01-29T11:23:35.138Z,19.94
2023-01-29T11:28:57.150Z,20.02
2023-01-29T11:34:22.166Z,20.07
2023-01-29T11:39:47.361Z,20.06
2023-01-29T11:45:30.086Z,20.04
2023-01-29T11:51:00.736Z,20.19
2023-01-29T11:56:27.238Z,20.37
2023-01-29T12:01:48.980Z,20.54
2023-01-29T12:07:18.785Z,20.68
2023-01-29T12:12:43.210Z,20.68
2023-01-29T12:18:20.309Z,20.66
2023-01-29T12:24:02.237Z,20.60
2023-01-29T12:29:48.136Z,20.52
2023-01-29T12:35:22.672Z,20.43
2023-01-29T12:40:55.376Z,20.34
2023-01-29T12:46:29.519Z,20.20
2023-01-29T12:51:54.753Z,20.05
2023-01-29T12:57:32.276Z,19.90
2023-01-29T13:03:03.755Z,19.75
2023-01-29T13:08:32.722Z,19.60
2023-01-29T13:13:59.612Z,19.47
2023-01-29T13:19:28.620Z,19.34
2023-01-29T13:25:03.640Z,19.20
2023-01-29T13:30:32.933Z,19.13
2023-01-29T13:36:00.380Z,19.04
2023-01-29T13:41:33.450Z,19.12
2023-01-29T13:46:58.171Z,19.25
2023-01-29T13:52:37.002Z,19.41
2023-01-29T13:58:00.688Z,19.51
2023-01-29T14:03:25.113Z,19.60
2023-01-29T14:08:47.635Z,19.73
2023-01-29T14:14:48.321Z,19.87
2023-01-29T14:20:20.685Z,20.06
2023-01-29T14:25:43.037Z,20.23
2023-01-29T14:31:07.675Z,20.38
2023-01-29T14:36:38.529Z,20.43
2023-01-29T14:42:03.193Z,20.44
2023-01-29T14:47:27.680Z,20.39
2023-01-29T14:52:54.117Z,20.36
2023-01-29T14:58:26.302Z,20.36
2023-01-29T15:03:55.621Z,20.33
2023-01-29T15:09:41.995Z,20.31
2023-01-29T15:15:09.880Z,20.24
2023-01-29T15:20:36.895Z,20.20
2023-01-29T15:26:04.870Z,20.12
2023-01-29T15:31:28.629Z,20.04
2023-01-29T15:36:51.185Z,19.91
2023-01-29T15:42:23.659Z,19.80
2023-01-29T15:47:45.426Z,19.68
2023-01-29T15:53:13.147Z,19.56
2023-01-29T15:58:35.146Z,19.48
2023-01-29T16:04:01.249Z,19.39
2023-01-29T16:09:26.303Z,19.31
2023-01-29T16:14:50.656Z,19.21
2023-01-29T16:20:45.693Z,19.11
2023-01-29T16:26:09.643Z,19.02
2023-01-29T16:31:32.752Z,18.92
2023-01-29T16:36:56.360Z,18.82
2023-01-29T16:42:20.209Z,18.75
2023-01-29T16:47:42.062Z,18.80
2023-01-29T16:53:12.504Z,18.94
2023-01-29T16:58:34.988Z,19.13
2023-01-29T17:04:03.126Z,19.36
2023-01-29T17:09:29.978Z,19.55
2023-01-29T17:15:00.875Z,19.74
2023-01-29T17:20:23.371Z,19.87
2023-01-29T17:25:46.574Z,19.97
2023-01-29T17:31:08.842Z,20.07
2023-01-29T17:36:30.724Z,20.11
2023-01-29T17:41:54.522Z,20.07
2023-01-29T17:47:16.258Z,20.00
2023-01-29T17:52:37.930Z,19.92
2023-01-29T17:57:59.656Z,19.83
2023-01-29T18:03:21.696Z,19.74
2023-01-29T18:08:43.416Z,19.62
2023-01-29T18:14:13.541Z,19.53
2023-01-29T18:19:36.227Z,19.48
2023-01-29T18:24:57.913Z,19.49
2023-01-29T18:30:19.696Z,19.61
2023-01-29T18:35:41.364Z,19.75
2023-01-29T18:41:12.352Z,19.90
2023-01-29T18:46:34.092Z,20.01
2023-01-29T18:51:55.936Z,20.12
2023-01-29T18:58:27.713Z,20.21
2023-01-29T19:02:59.697Z,20.28
2023-01-29T19:08:21.364Z,20.48
2023-01-29T19:13:43.200Z,20.79
2023-01-29T19:19:04.894Z,20.99
2023-01-29T19:24:27.695Z,21.15
2023-01-29T19:29:49.395Z,21.22
2023-01-29T19:35:11.169Z,21.20
2023-01-29T19:40:32.936Z,21.14
2023-01-29T19:46:01.156Z,21.06
2023-01-29T19:51:23.503Z,21.02
2023-01-29T19:56:45.636Z,21.07
2023-01-29T20:02:07.406Z,21.09
2023-01-29T20:07:29.142Z,21.08
2023-01-29T20:12:51.386Z,21.10
2023-01-29T20:18:14.382Z,21.18
2023-01-29T20:23:38.644Z,21.39
2023-01-29T20:29:00.535Z,21.64
2023-01-29T20:34:22.505Z,21.92
2023-01-29T20:39:44.187Z,22.16
2023-01-29T20:45:06.458Z,22.39
2023-01-29T20:50:28.411Z,22.58
2023-01-29T20:55:50.138Z,22.74
2023-01-29T21:01:16.914Z,22.83
2023-01-29T21:06:38.675Z,22.91
2023-01-29T21:12:00.517Z,22.87
2023-01-29T21:17:22.229Z,22.81
2023-01-29T21:22:44.232Z,22.74
2023-01-29T21:28:06.418Z,22.66
2023-01-29T21:33:28.179Z,22.58
2023-01-29T21:38:49.915Z,22.41
2023-01-29T21:44:12.453Z,22.23
2023-01-29T21:49:34.213Z,22.04
2023-01-29T21:54:56.126Z,21.82
2023-01-29T22:00:18.867Z,21.63
2023-01-29T22:05:40.912Z,21.44
2023-01-29T22:11:07.208Z,21.27
2023-01-29T22:16:30.033Z,21.08
2023-01-29T22:21:53.117Z,20.93
2023-01-29T22:27:15.499Z,20.79
2023-01-29T22:32:37.470Z,20.67
2023-01-29T22:37:59.310Z,20.53
2023-01-29T22:43:22.131Z,20.42
2023-01-29T22:48:43.979Z,20.31
2023-01-29T22:54:05.713Z,20.21
2023-01-29T22:59:28.069Z,20.14
2023-01-29T23:04:50.513Z,20.05
2023-01-29T23:10:14.832Z,19.95
2023-01-29T23:15:36.710Z,19.87
2023-01-29T23:20:58.584Z,19.79
2023-01-29T23:26:39.304Z,19.74
2023-01-29T23:32:00.995Z,19.65
2023-01-29T23:37:22.920Z,19.57
2023-01-29T23:42:44.727Z,19.52
2023-01-29T23:48:06.698Z,19.46
2023-01-29T23:53:28.422Z,19.38
2023-01-29T23:58:56.875Z,19.35
